Weather observations for the past three days for
Warrenton-Fauquier Airport
Metric (Imperial)
Date Time (edt) Wind (kph) Vis. (km) Weather Sky Cond. Temperature (ºC) Relative Humidity Wind Chill (°C) Heat Index (°C) Pressure Precipitation (cm)
Air Dwpt 6 hour altimeter (cm) sea level (mb) 1 hr 3 hr 6 hr
Max. Min.
31 21:55 Calm 1.21 Fog/Mist BKN002 22.2 20.6 91% 76.43 0.0
31 21:35 Calm 3.22 Fog/Mist CLR 23.5 22 91% 76.4 0.0
31 21:15 Calm 11.27 Fair CLR 24.3 22.7 91% 24 76.43 0.0
31 20:55 Calm 11.27 Fair CLR 24.4 22.7 90% 24 76.4 0.0
31 20:35 Calm 16.09 Fair CLR 25 23.3 90% 26 76.4 0.0
31 20:15 Calm 16.09 Fair CLR 25.5 24 91% 27 76.38 0.0
31 19:55 Calm 16.09 Fair CLR 26.1 23.7 31.5 26 87% 28 76.38 0.0
31 19:35 Calm 16.09 Fair CLR 26.8 23.2 81% 29 76.38 0.0
31 19:15 Calm 16.09 Fair CLR 27.7 22.5 73% 31 76.38 0.0
31 18:55 Calm 16.09 Fair CLR 28.2 22.7 72% 31 76.4 0.0
31 18:35 Calm 16.09 Fair CLR 28.4 23.3 74% 32 76.4 0.0
31 18:15 Calm 16.09 Fair CLR 29.2 21.5 63% 32 76.43 0.0
31 17:55 Calm 16.09 Fair CLR 29.2 21.1 62% 32 76.43 0.0
31 17:35 N 6 16.09 Fair CLR 29.6 21.1 60% 32 76.43 0.0
31 17:15 Calm 16.09 Fair CLR 30 20.9 58% 32 76.43 0.0
31 16:55 Calm 16.09 Light Rain CLR 29.9 22.2 63% 33 76.43 0.0
31 16:35 Calm 16.09 Fair CLR 29.6 20.6 58% 32 76.43 0.0
31 16:15 Calm 16.09 Fair CLR 30.9 20.2 53% 33 76.43 0.0
31 15:55 Calm 16.09 Fair CLR 30.7 19.7 52% 32 76.43 0.0
31 15:35 Calm 16.09 Fair CLR 30.4 19.5 52% 32 76.43 0.0
31 15:15 Calm 16.09 Fair CLR 30.4 19.9 53% 32 76.45 0.0
31 14:55 Calm 16.09 Fair CLR 30.6 20.1 53% 33 76.48 0.0
31 14:35 N 7 16.09 Fair CLR 30.5 20.2 54% 33 76.48 0.0
31 14:15 NW 6 16.09 Fair CLR 30 20.4 56% 32 76.48 0.0
31 13:55 Calm 16.09 Fair CLR 30.2 19.8 31 21.7 54% 32 76.48 0.0
31 13:35 Calm 16.09 Fair CLR 30.2 20.1 55% 32 76.48 0.0
31 13:15 NE 6 16.09 Fair CLR 30.5 20.4 55% 33 76.5 0.0
31 12:55 N 7 16.09 Fair CLR 30.6 20.1 53% 33 76.5 0.0
31 12:35 N 6 16.09 Fair CLR 30.6 21 57% 33 76.53 0.0
31 12:15 N 7 16.09 Fair CLR 29.9 20.8 58% 32 76.56 0.0
31 11:55 NE 9 16.09 Partly Cloudy SCT028 29.7 20.6 58% 32 76.56 0.0
31 11:35 N 11 16.09 Fair CLR 29.3 21.1 61% 32 76.53 0.0
31 11:15 NE 7 16.09 Fair CLR 28.6 21.2 64% 31 76.5 0.0
31 10:55 N 9 16.09 Fair CLR 28.5 21.2 65% 31 76.53 0.0
31 10:35 N 9 16.09 Fair CLR 28.1 21.1 66% 30 76.53 0.0
31 10:15 N 11 16.09 Fair CLR 27 20.9 69% 29 76.53 0.0
31 09:55 N 6 16.09 Fair CLR 25.8 20.7 74% 27 76.53 0.0
31 09:35 NE 6 16.09 Fair CLR 26 20.8 73% 27 76.5 0.0
31 09:15 Calm 16.09 Fair CLR 25.7 20.6 74% 27 76.53 0.0
31 08:55 Calm 16.09 Fair CLR 24.8 21.2 80% 26 76.53 0.0
31 08:35 Calm 16.09 Fair CLR 23.7 21.4 87% 76.53 0.0
31 08:15 Calm 16.09 Fair CLR 22.9 21.3 91% 76.53 0.0
31 07:55 Calm 16.09 Fair CLR 21.6 20 21.6 18.5 91% 76.5 0.0
31 07:35 Calm 6.44 Fog/Mist SCT002 20.2 18.7 91% 76.48 0.0
31 07:15 Calm 0.80 Fog BKN002 19 17.5 91% 76.48 0.0
31 06:55 Calm 4.83 Fog/Mist SCT002 19.2 17.7 91% 76.45 0.0
31 06:35 Calm 2.41 Fog/Mist VV007 19.7 18.2 91% 76.43 0.0
31 06:15 Calm 16.09 Fair CLR 20.3 18.8 91% 76.43 0.0
31 05:55 Calm 11.27 Fair CLR 20 18.5 91% 76.43 0.0
31 05:35 Calm 8.05 Fog/Mist SCT002 19.3 17.8 91% 76.43 0.0
31 05:15 Calm 2.01 Fog/Mist OVC002 18.7 17.2 91% 76.4 0.0
31 04:55 Calm 0.80 Fog OVC002 18.7 17.2 91% 76.4 0.0
31 04:35 Calm 4.83 Fog/Mist SCT002 18.6 17.1 91% 76.43 0.0
31 04:15 Calm 1.61 Fog/Mist OVC002 19.2 17.7 91% 76.4 0.0
31 03:55 Calm 0.80 Fog OVC002 20 18.5 91% 76.4 0.0
31 03:35 Calm 1.21 Fog/Mist OVC002 18.9 17.4 91% 76.4 0.0
31 03:15 Calm 0.80 Fog OVC002 19.1 17.6 91% 76.4 0.0
31 02:55 Calm 0.80 Fog OVC002 19.5 18 91% 76.4 0.0
31 02:35 Calm 1.21 Fog/Mist OVC002 19.8 18.3 91% 76.4 0.0
31 02:15 Calm 8.05 Fog/Mist CLR 20.7 19.2 91% 76.43 0.0
31 01:35 SE 6 11.27 Fair CLR 20.7 19.2 91% 76.45 0.0
31 01:15 Calm 16.09 Fair CLR 20.7 19.2 91% 76.45 0.0
31 00:55 Calm 16.09 Fair CLR 20.9 19.4 91% 76.45 0.0
31 00:35 Calm 16.09 Fair CLR 21.3 19.8 91% 76.48 0.0
31 00:15 Calm 16.09 Fair CLR 21.7 20.2 91% 76.48 0.0
30 23:55 N 7 16.09 Fair CLR 21.5 19.9 91% 76.48 0.0
30 23:35 Calm 16.09 Fair CLR 21.7 20.2 91% 76.48 0.0
30 23:15 Calm 16.09 Fair CLR 22.3 20.7 91% 76.48 0.0
30 22:55 SW 6 16.09 Fair CLR 22.9 21 89% 76.5 0.0
30 22:35 S 7 16.09 Fair CLR 22.5 21 91% 76.5 0.0
30 22:15 SW 7 16.09 Fair CLR 22.4 20.8 91% 76.53 0.0
30 21:55 Calm 16.09 Fair CLR 22.4 20.8 91% 76.53 0.0
30 21:35 Calm 16.09 Fair CLR 22.5 21 91% 76.53 0.0
30 21:15 Calm 16.09 Fair CLR 22.3 20.8 91% 76.5 0.0
30 20:55 Calm 16.09 Fair CLR 22.4 20.8 91% 76.5 0.0
30 20:35 Calm 16.09 Fair CLR 23.5 20.9 85% 76.48 0.0
30 20:15 Calm 16.09 Fair CLR 24.2 20.2 78% 25 76.48 0.0
30 19:55 Calm 16.09 Thunderstorm in Vicinity CLR 24.8 20 31.8 24.8 75% 26 76.48 0.0
30 19:35 Calm 16.09 Thunderstorm in Vicinity CLR 25.5 19.8 71% 27 76.48 0.0
30 19:15 Calm 16.09 Thunderstorm in Vicinity CLR 25.5 19.8 71% 27 76.48 0.0
30 18:55 Calm 16.09 Partly Cloudy SCT110 25.5 20 72% 27 76.45 0.0
30 18:35 SW 13 16.09 Partly Cloudy SCT110 26.9 19.5 64% 28 76.48 0.0
30 18:15 SW 13 16.09 Fair CLR 28.5 20.1 60% 30 76.4 0.0
30 17:55 S 6 16.09 Fair CLR 28 20.4 63% 30 76.4 0.0
30 17:35 S 6 16.09 Fair CLR 28.5 20.2 61% 30 76.43 0.0
30 17:15 S 7 16.09 Fair CLR 29.2 20.1 58% 31 76.43 0.0
30 16:55 Calm 16.09 Fair CLR 30.6 20.4 54% 33 76.4 0.0
30 16:35 S 13 16.09 Fair CLR 31.5 20.4 52% 34 76.4 0.0
30 16:15 S 11 16.09 Fair CLR 31.5 20 50% 34 76.43 0.0
30 15:55 SE 9 16.09 Fair CLR 31.6 20.2 51% 34 76.45 0.0
30 15:35 S 7 16.09 Partly Cloudy SCT037 31.5 20.2 51% 34 76.45 0.0
30 15:15 SW 11 16.09 Fair CLR 31.3 20 51% 33 76.48 0.0
30 14:55 S 9 16.09 Fair CLR 30.9 20.3 53% 33 76.5 0.0
30 14:35 S 9 16.09 Fair CLR 30.5 20.3 54% 33 76.56 0.0
30 14:15 S 11 16.09 Fair CLR 30.1 20.4 56% 32 76.56 0.0
30 13:55 S 11 G 26 16.09 Fair CLR 30 20.7 30 22.1 57% 32 76.61 0.0
30 13:35 S 13 16.09 Fair CLR 29.4 20.4 58% 31 76.63 0.0
30 13:15 SW 15 16.09 Fair CLR 29.1 20.4 59% 31 76.63 0.0
30 12:55 S 17 G 28 16.09 Fair CLR 29 20.1 59% 31 76.66 0.0
30 12:35 S 7 16.09 Fair CLR 28.6 20.4 61% 31 76.68 0.0
30 12:15 S 11 16.09 Fair CLR 27.8 20.4 64% 30 76.68 0.0
30 11:55 S 11 G 28 16.09 Fair CLR 27.7 20.8 66% 30 76.71 0.0
30 11:35 S 17 G 26 16.09 Fair CLR 27.5 20.7 67% 29 76.71 0.0
30 11:15 SW 13 G 28 16.09 Fair CLR 26.1 20.5 71% 27 76.71 0.0
30 10:55 S 13 G 26 16.09 Fair CLR 26.9 20.8 69% 29 76.68 0.0
30 10:35 SW 15 16.09 Fair CLR 25.6 20.6 74% 27 76.71 0.0
30 10:15 S 9 16.09 Fair CLR 24.7 21.1 80% 25 76.71 0.0
30 09:55 S 9 16.09 Fair CLR 24.5 21.3 82% 25 76.71 0.0
30 09:35 S 7 16.09 Fair CLR 24 21.7 87% 24 76.73 0.0
30 09:15 S 7 16.09 Fair CLR 23.6 21.8 90% 76.73 0.0
30 08:55 S 7 16.09 Partly Cloudy SCT004 23.2 21.6 91% 76.73 0.0
30 08:35 S 9 16.09 Mostly Cloudy BKN004 22.8 21.2 91% 76.73 0.0
30 08:15 S 7 11.27 Overcast OVC004 22.5 20.9 91% 76.73 0.0
30 07:55 S 11 6.44 Fog/Mist OVC002 22.1 20.6 22.1 19.1 91% 76.73 0.0
30 07:35 S 6 2.82 Fog/Mist OVC002 22 20.4 91% 76.73 0.0
30 07:15 Calm 2.01 Fog/Mist OVC002 21.6 20.1 91% 76.76 0.0
30 06:55 Calm 1.61 Fog/Mist OVC002 21.5 20 91% 76.76 0.0
30 06:35 Calm 1.21 Fog/Mist OVC002 21.5 19.9 91% 76.73 0.0
30 06:15 S 6 1.61 Fog/Mist OVC002 21.4 19.8 91% 76.73 0.0
30 05:55 S 6 11.27 Overcast OVC004 21.3 19.7 91% 76.76 0.0
30 05:35 Calm 16.09 Mostly Cloudy BKN006 21 19.4 91% 76.73 0.0
30 05:15 Calm 16.09 Fair CLR 20.5 19 91% 76.71 0.0
30 04:55 Calm 16.09 Fair CLR 20.4 18.9 91% 76.73 0.0
30 04:35 Calm 16.09 Fair CLR 20.1 18.6 91% 76.71 0.0
30 04:15 Calm 16.09 Fair CLR 19.7 18.2 91% 76.73 0.0
30 03:55 Calm 16.09 Fair CLR 19.9 18.4 91% 76.73 0.0
30 03:35 Calm 16.09 Fair CLR 20.1 18.6 91% 76.73 0.0
30 03:15 S 6 16.09 Fair CLR 19.7 18.2 91% 76.76 0.0
30 02:55 Calm 16.09 Fair CLR 19.5 18 91% 76.76 0.0
30 02:35 Calm 16.09 Fair CLR 19.3 17.8 91% 76.76 0.0
30 02:15 Calm 16.09 Fair CLR 19.1 17.6 91% 76.78 0.0
30 01:55 Calm 16.09 Fair CLR 19.2 17.7 23.1 18.3 91% 76.78 0.0
30 01:35 Calm 16.09 Fair CLR 18.8 17.3 91% 76.78 0.0
30 01:15 Calm 16.09 Fair CLR 18.8 17.3 91% 76.78 0.0
30 00:55 Calm 16.09 Fair CLR 19 17.5 91% 76.76 0.0
30 00:35 Calm 16.09 Fair CLR 19.2 17.7 91% 76.76 0.0
30 00:15 Calm 16.09 Fair CLR 20.3 17.6 85% 76.76 0.0
29 23:55 SE 6 16.09 Fair CLR 20.1 18.1 88% 76.76 0.0
29 23:35 Calm 16.09 Fair CLR 19.2 17.7 91% 76.73 0.0
29 23:15 Calm 16.09 Fair CLR 19 17.5 91% 76.76 0.0
29 22:55 Calm 16.09 Fair CLR 18.5 17 91% 76.76 0.0
29 22:35 Calm 16.09 Fair CLR 18.6 17.1 91% 76.76 0.0
29 22:15 Calm 16.09 Fair CLR 18.7 17.2 91% 76.76 0.0
29 21:55 Calm 16.09 Fair CLR 19.2 17.1 88% 76.76 0.0
29 21:35 SE 6 16.09 Fair CLR 20.1 17.7 86% 76.73 0.0
29 21:15 Calm 16.09 Fair CLR 21.7 17.5 77% 76.71 0.0
29 20:55 SE 6 16.09 Fair CLR 21.5 18.1 81% 76.68 0.0
29 20:35 SE 6 16.09 Fair CLR 22.1 17.5 75% 76.68 0.0
29 20:15 Calm 16.09 Fair CLR 22.1 17.6 76% 76.68 0.0
29 19:55 SE 6 16.09 Fair CLR 23.2 17.5 29.1 23.2 70% 76.66 0.0
29 19:35 SE 6 16.09 Fair CLR 24.1 18 69% 25 76.66 0.0
29 19:15 Calm 16.09 Fair CLR 25.8 18.1 63% 27 76.68 0.0
29 18:55 Calm 16.09 Fair CLR 26.4 17.2 57% 27 76.68 0.0
29 18:35 SE 6 16.09 Fair CLR 27 16.7 53% 28 76.68 0.0
29 18:15 Calm 16.09 Fair CLR 27.3 16.3 51% 28 76.71 0.0
29 17:55 Calm 16.09 Fair CLR 27.4 16.4 51% 28 76.71 0.0
29 17:35 S 7 16.09 Partly Cloudy SCT044 28.3 16.2 48% 29 76.68 0.0
29 17:15 SE 7 16.09 Partly Cloudy SCT043 27.7 16 49% 28 76.68 0.0
29 16:55 SE 6 16.09 Partly Cloudy SCT043 27.5 16.3 50% 28 76.68 0.0
29 16:35 Calm 16.09 Fair CLR 28.4 15 44% 28 76.73 0.0
29 16:15 Calm 16.09 Partly Cloudy SCT042 28.1 15.3 46% 28 76.76 0.0
29 15:55 SE 6 16.09 Fair CLR 28.4 15.6 46% 29 76.76 0.0
29 15:35 S 6 16.09 Fair CLR 28.2 15.2 45% 28 76.78 0.0
29 15:15 NE 7 16.09 Fair CLR 28.1 14.2 43% 28 76.78 0.0
29 14:55 E 6 16.09 Fair CLR 28 14.3 43% 28 76.81 0.0
29 14:35 SE 11 16.09 Fair CLR 27.6 13.8 43% 27 76.81 0.0
29 14:15 E 6 16.09 Fair CLR 27.8 13.4 41% 28 76.84 0.0
29 13:55 NE 13 16.09 Fair CLR 27.8 13.5 28.2 20 41% 28 76.84 0.0
29 13:35 E 6 16.09 Fair CLR 27.2 13.6 43% 27 76.86 0.0
29 12:15 NE 11 16.09 Fair CLR 25.7 12.6 44% 26 76.89 0.0
29 11:55 E 6 16.09 Fair CLR 26 13 45% 26 76.89 0.0
29 11:35 N 11 16.09 Fair CLR 25.6 12.5 44% 26 76.89 0.0
29 11:15 NE 9 16.09 Fair CLR 25.1 12.5 46% 26 76.89 0.0
29 10:55 NE 11 16.09 Fair CLR 24.9 12.4 46% 26 76.86 0.0
29 10:35 NE 11 16.09 Fair CLR 24.3 12.6 48% 26 76.84 0.0
29 10:15 NE 15 16.09 Fair CLR 24.1 13 50% 25 76.86 0.0
29 09:35 NE 9 16.09 Fair CLR 22 13.3 58% 76.86 0.0
29 09:15 NE 13 16.09 Fair CLR 22.2 13.8 59% 76.84 0.0
29 08:55 N 13 16.09 Fair CLR 21.2 14.1 64% 76.84 0.0
29 08:35 N 13 16.09 Fair CLR 20.5 14.1 67% 76.81 0.0
29 08:15 N 13 16.09 Fair CLR 20.5 14.2 67% 76.81 0.0
29 07:55 N 11 16.09 Fair CLR 20 14.5 20 17 71% 76.81 0.0
29 07:35 N 11 16.09 Fair CLR 19.6 14.7 73% 76.78 0.0
29 07:15 N 11 16.09 Fair CLR 19.5 14.9 75% 76.78 0.0
29 06:55 N 13 16.09 Fair CLR 19.3 15.2 77% 76.76 0.0
29 06:35 N 9 16.09 Fair CLR 19.3 15.5 79% 76.73 0.0
29 06:15 N 11 16.09 Fair CLR 19.5 15.5 78% 76.71 0.0
29 05:55 N 11 16.09 Fair CLR 19.5 15.6 78% 76.68 0.0
29 05:35 N 11 16.09 Fair CLR 19.4 16 81% 76.66 0.0
29 05:15 N 7 16.09 Fair CLR 19.1 16.4 84% 76.66 0.0
29 04:55 Calm 16.09 Fair CLR 17.5 16 91% 76.66 0.0
29 04:35 Calm 3.22 Fog/Mist CLR 17 15.5 91% 76.63 0.0
29 04:15 Calm 11.27 Fair CLR 17.5 16 91% 76.61 0.0
29 03:55 Calm 11.27 Fair CLR 17.4 15.9 91% 76.58 0.0
29 03:35 Calm 16.09 Fair CLR 18 16.5 91% 76.58 0.0
29 03:15 Calm 16.09 Fair CLR 18.2 16.7 91% 76.56 0.0
29 02:55 Calm 8.05 Fog/Mist CLR 18.3 16.8 91% 76.56 0.0
29 02:35 Calm 3.22 Fog/Mist CLR 18 16.5 91% 76.56 0.0
29 02:15 Calm 6.44 Fog/Mist SCT002 19.2 17.7 91% 76.56 0.0
29 01:55 Calm 1.21 Fog/Mist BKN002 18.5 17 25.7 18.2 91% 76.53 0.0
29 01:35 Calm 3.22 Fog/Mist CLR 18.9 17.4 91% 76.53 0.0
29 01:15 Calm 8.05 Fog/Mist SCT002 18.7 17.2 91% 76.53 0.0
29 00:55 Calm 1.61 Fog/Mist BKN002 18.6 17.1 91% 76.53 0.0
29 00:35 Calm 1.61 Fog/Mist BKN002 19.1 17.6 91% 76.5 0.0
29 00:15 Calm 11.27 Fair CLR 19.2 17.7 91% 76.5 0.0
28 23:55 Calm 11.27 Fair CLR 19.3 17.8 91% 76.5 0.0
28 23:35 Calm 16.09 Fair CLR 20.3 18.8 91% 76.5 0.0
28 23:15 Calm 11.27 Fair CLR 20 18.5 91% 76.48 0.0
28 22:55 Calm 16.09 Fair CLR 20 18.5 91% 76.48 0.0
28 22:35 Calm 16.09 Fair CLR 20.7 19.2 91% 76.48 0.0
28 22:15 Calm 16.09 Fair CLR 21.3 19.7 91% 76.48 0.0
Date Time (edt) Wind (kph) Vis. (km) Weather Sky Cond. Air Dwpt Max. Min. Relative Humidity Wind Chill (°C) Heat Index (°C) altimeter (cm) sea level (mb) 1 hr 3 hr 6 hr
6 hour
Temperature (ºC) Pressure Precipitation (cm)